Gonzalez, Florida
Current Conditions -  °F | °C
As of 9:53 AM on Friday 21 Nov 2014 (Local Time) from KPNS Reporting Station
Clear Clear  
Wind Chill: 61°   Ceiling: Unl
Heat Index: 61°   Visibility: 10mi
Dew Point: 46°   Wind: 7mph
Humidity: 58%   Direction: NA
Pressure: 30.36"   Gusts: NA
Location:  30.58°N, 87.29°W
Report Text: KPNS 211553Z VRB06KT 10SM CLR 16/08 A3036 RMK AO2 SLP282 T01610078
Loading
Personal Weather Stations






























Interactive Weather Map New forecast layout! Learn more

10-Day Weather Forecast

Advertisements
Track Severe Weather on mobile